createdAt,value
2022-08-26T00:00:04.360Z,22.68
2022-08-26T00:02:42.544Z,22.62
2022-08-26T00:05:12.512Z,22.66
2022-08-26T00:07:43.384Z,22.63
2022-08-26T00:10:13.680Z,22.65
2022-08-26T00:12:44.116Z,22.63
2022-08-26T00:15:20.225Z,22.61
2022-08-26T00:17:50.499Z,22.58
2022-08-26T00:20:23.508Z,22.49
2022-08-26T00:22:53.457Z,22.45
2022-08-26T00:25:23.267Z,22.43
2022-08-26T00:27:53.176Z,22.43
2022-08-26T00:30:28.108Z,22.41
2022-08-26T00:32:58.017Z,22.38
2022-08-26T00:35:28.518Z,22.28
2022-08-26T00:37:58.940Z,22.20
2022-08-26T00:40:32.277Z,22.22
2022-08-26T00:43:02.248Z,22.20
2022-08-26T00:45:43.183Z,22.20
2022-08-26T00:48:13.443Z,22.20
2022-08-26T00:50:45.967Z,22.20
2022-08-26T00:53:26.041Z,22.25
2022-08-26T00:56:01.420Z,22.20
2022-08-26T00:58:32.741Z,22.18
2022-08-26T01:01:05.492Z,22.19
2022-08-26T01:03:37.167Z,22.16
2022-08-26T01:06:12.510Z,22.10
2022-08-26T01:08:43.256Z,22.11
2022-08-26T01:11:13.999Z,22.12
2022-08-26T01:13:44.189Z,22.14
2022-08-26T01:16:18.738Z,22.15
2022-08-26T01:18:50.712Z,22.11
2022-08-26T01:21:28.035Z,22.10
2022-08-26T01:24:02.671Z,22.09
2022-08-26T01:26:36.562Z,22.09
2022-08-26T01:29:08.369Z,22.08
2022-08-26T01:31:41.830Z,22.06
2022-08-26T01:34:16.919Z,22.01
2022-08-26T01:36:50.705Z,22.00
2022-08-26T01:39:24.020Z,22.01
2022-08-26T01:41:57.130Z,21.97
2022-08-26T01:44:32.580Z,21.93
2022-08-26T01:47:03.025Z,21.87
2022-08-26T01:49:37.015Z,21.84
2022-08-26T01:52:08.323Z,21.82
2022-08-26T01:54:43.075Z,21.81
2022-08-26T01:57:17.447Z,21.77
2022-08-26T01:59:47.148Z,21.77
2022-08-26T02:02:16.913Z,21.67
2022-08-26T02:04:49.925Z,21.66
2022-08-26T02:07:20.661Z,21.67
2022-08-26T02:09:53.852Z,21.59
2022-08-26T02:12:23.790Z,21.58
2022-08-26T02:14:59.125Z,21.60
2022-08-26T02:17:39.001Z,21.56
2022-08-26T02:20:13.193Z,21.50
2022-08-26T02:22:45.450Z,21.44
2022-08-26T02:25:23.048Z,21.43
2022-08-26T02:27:56.629Z,21.43
2022-08-26T02:30:29.085Z,21.44
2022-08-26T02:33:03.731Z,21.41
2022-08-26T02:35:34.959Z,21.36
2022-08-26T02:38:09.827Z,21.31
2022-08-26T02:40:44.056Z,21.26
2022-08-26T02:43:14.087Z,21.27
2022-08-26T02:45:44.343Z,21.17
2022-08-26T02:48:18.844Z,21.21
2022-08-26T02:50:48.876Z,21.21
2022-08-26T02:55:57.427Z,21.13
2022-08-26T02:58:29.428Z,21.19
2022-08-26T03:00:59.212Z,21.21
2022-08-26T03:03:29.247Z,21.21
2022-08-26T03:06:00.395Z,21.21
2022-08-26T03:11:02.611Z,21.18
2022-08-26T03:13:32.892Z,21.23
2022-08-26T03:18:33.016Z,21.18
2022-08-26T03:21:08.556Z,21.22
2022-08-26T03:23:38.486Z,21.21
2022-08-26T03:26:11.755Z,21.12
2022-08-26T03:29:02.730Z,21.08
2022-08-26T03:31:30.377Z,21.13
2022-08-26T03:34:00.659Z,21.12
2022-08-26T03:36:30.596Z,21.11
2022-08-26T03:39:01.026Z,21.06
2022-08-26T03:41:33.882Z,21.06
2022-08-26T03:44:04.218Z,21.04
2022-08-26T03:46:34.624Z,21.03
2022-08-26T03:49:05.869Z,21.01
2022-08-26T03:51:38.821Z,21.03
2022-08-26T03:54:09.582Z,21.02
2022-08-26T03:56:41.897Z,21.03
2022-08-26T03:59:11.623Z,21.05
2022-08-26T04:01:41.858Z,21.06
2022-08-26T04:04:15.517Z,21.11
2022-08-26T04:06:46.152Z,21.12
2022-08-26T04:09:18.563Z,21.13
2022-08-26T04:11:51.628Z,21.15
2022-08-26T04:14:23.885Z,21.15
2022-08-26T04:16:55.331Z,21.18
2022-08-26T04:19:25.972Z,21.23
2022-08-26T04:21:56.343Z,21.28
2022-08-26T04:24:28.881Z,21.29
2022-08-26T04:27:02.153Z,21.32
2022-08-26T04:29:32.330Z,21.33
2022-08-26T04:32:02.978Z,21.34
2022-08-26T04:34:32.890Z,21.36
2022-08-26T04:37:03.635Z,21.37
2022-08-26T04:39:35.909Z,21.41
2022-08-26T04:42:09.042Z,21.42
2022-08-26T04:44:39.848Z,21.45
2022-08-26T04:47:09.703Z,21.48
2022-08-26T04:49:41.008Z,21.54
2022-08-26T04:52:11.880Z,21.57
2022-08-26T04:54:42.319Z,21.59
2022-08-26T04:57:15.024Z,21.61
2022-08-26T04:59:45.256Z,21.66
2022-08-26T05:02:16.265Z,21.69
2022-08-26T05:04:45.948Z,21.70
2022-08-26T05:07:15.603Z,21.74
2022-08-26T05:09:47.377Z,21.76
2022-08-26T05:12:19.681Z,21.81
2022-08-26T05:14:49.344Z,21.81
2022-08-26T05:17:19.050Z,21.83
2022-08-26T05:19:48.763Z,21.92
2022-08-26T05:22:20.216Z,21.95
2022-08-26T05:24:50.131Z,21.95
2022-08-26T05:27:22.428Z,21.95
2022-08-26T05:29:54.526Z,22.00
2022-08-26T05:32:24.504Z,22.01
2022-08-26T05:34:57.113Z,22.01
2022-08-26T05:37:28.298Z,22.02
2022-08-26T05:39:58.106Z,22.02
2022-08-26T05:42:30.459Z,22.08
2022-08-26T05:45:00.134Z,22.07
2022-08-26T05:47:29.824Z,22.10
2022-08-26T05:50:00.568Z,22.08
2022-08-26T05:52:30.290Z,22.11
2022-08-26T05:55:00.148Z,22.15
2022-08-26T05:57:37.445Z,22.16
2022-08-26T06:00:11.391Z,22.20
2022-08-26T06:02:41.892Z,22.21
2022-08-26T06:05:12.044Z,22.25
2022-08-26T06:07:54.259Z,22.28
2022-08-26T06:10:32.856Z,22.31
2022-08-26T06:13:09.278Z,22.33
2022-08-26T06:15:45.693Z,22.40
2022-08-26T06:18:16.853Z,22.45
2022-08-26T06:20:53.709Z,22.48
2022-08-26T06:23:40.987Z,22.52
2022-08-26T06:26:11.015Z,22.56
2022-08-26T06:28:45.486Z,22.59
2022-08-26T06:31:15.682Z,22.63
2022-08-26T06:33:46.046Z,22.65
2022-08-26T06:36:21.062Z,22.67
2022-08-26T06:38:51.000Z,22.69
2022-08-26T06:41:22.985Z,22.71
2022-08-26T06:43:55.235Z,22.67
2022-08-26T06:46:25.946Z,22.66
2022-08-26T06:48:58.178Z,22.68
2022-08-26T06:51:29.461Z,22.73
2022-08-26T06:54:00.277Z,22.76
2022-08-26T06:56:32.337Z,22.79
2022-08-26T06:59:07.618Z,22.84
2022-08-26T07:01:43.039Z,22.85
2022-08-26T07:04:14.565Z,22.85
2022-08-26T07:06:48.862Z,22.93
2022-08-26T07:09:19.338Z,22.96
2022-08-26T07:11:51.789Z,23.02
2022-08-26T07:14:26.607Z,23.03
2022-08-26T07:17:01.901Z,23.02
2022-08-26T07:19:31.980Z,23.02
2022-08-26T07:22:03.445Z,23.07
2022-08-26T07:24:35.458Z,23.09
2022-08-26T07:27:07.385Z,23.10
2022-08-26T07:29:42.770Z,23.18
2022-08-26T07:32:13.285Z,23.24
2022-08-26T07:34:43.919Z,23.25
2022-08-26T07:37:14.202Z,23.27
2022-08-26T07:39:44.481Z,23.27
2022-08-26T07:42:15.897Z,23.31
2022-08-26T07:44:51.098Z,23.34
2022-08-26T07:47:25.709Z,23.41
2022-08-26T07:49:57.973Z,23.47
2022-08-26T07:52:29.501Z,23.47
2022-08-26T07:55:01.610Z,23.51
2022-08-26T07:57:33.780Z,23.47
2022-08-26T08:00:12.112Z,23.45
2022-08-26T08:02:44.970Z,23.45
2022-08-26T08:05:18.489Z,23.47
2022-08-26T08:07:48.559Z,23.50
2022-08-26T08:10:26.623Z,23.53
2022-08-26T08:12:59.089Z,23.56
2022-08-26T08:15:33.581Z,23.58
2022-08-26T08:18:06.713Z,23.58
2022-08-26T08:20:59.283Z,23.62
2022-08-26T08:23:35.508Z,23.67
2022-08-26T08:26:05.759Z,23.75
2022-08-26T08:28:38.062Z,23.77
2022-08-26T08:31:10.446Z,23.78
2022-08-26T08:33:40.138Z,23.80
2022-08-26T08:36:10.538Z,23.77
2022-08-26T08:38:48.416Z,23.78
2022-08-26T08:41:32.443Z,23.77
2022-08-26T08:44:03.492Z,23.72
2022-08-26T08:46:35.848Z,23.70
2022-08-26T08:49:07.550Z,23.70
2022-08-26T08:51:42.842Z,23.72
2022-08-26T08:54:13.510Z,23.76
2022-08-26T08:56:45.631Z,23.75
2022-08-26T08:59:18.161Z,23.83
2022-08-26T09:01:58.303Z,23.83
2022-08-26T09:05:15.129Z,23.81
2022-08-26T09:07:48.857Z,23.78
2022-08-26T09:10:37.692Z,23.79
2022-08-26T09:13:16.391Z,23.82
2022-08-26T09:15:53.520Z,23.85
2022-08-26T09:18:37.630Z,23.87
2022-08-26T09:21:09.556Z,23.84
2022-08-26T09:23:41.944Z,23.85
2022-08-26T09:26:18.506Z,23.84
2022-08-26T09:28:50.545Z,23.87
2022-08-26T09:31:25.172Z,23.94
2022-08-26T09:34:17.330Z,23.95
2022-08-26T09:36:49.142Z,23.95
2022-08-26T09:39:45.379Z,23.96
2022-08-26T09:42:17.302Z,23.97
2022-08-26T09:44:58.436Z,23.95
2022-08-26T09:47:31.678Z,23.99
2022-08-26T09:50:09.456Z,23.95
2022-08-26T09:52:40.615Z,23.96
2022-08-26T09:55:16.074Z,24.02
2022-08-26T09:57:51.711Z,24.07
2022-08-26T10:00:30.725Z,24.15
2022-08-26T10:03:02.618Z,24.22
2022-08-26T10:05:42.284Z,24.27
2022-08-26T10:08:23.264Z,24.31
2022-08-26T10:10:53.794Z,24.28
2022-08-26T10:13:29.475Z,24.25
2022-08-26T10:16:05.580Z,24.25
2022-08-26T10:18:36.592Z,24.24
2022-08-26T10:21:13.088Z,24.23
2022-08-26T10:23:45.734Z,24.19
2022-08-26T10:26:21.036Z,24.19
2022-08-26T10:28:53.064Z,24.19
2022-08-26T10:31:30.225Z,24.20
2022-08-26T10:34:08.337Z,24.16
2022-08-26T10:37:14.845Z,24.22
2022-08-26T10:39:49.132Z,24.25
2022-08-26T10:42:25.957Z,24.21
2022-08-26T10:45:02.285Z,24.18
2022-08-26T10:47:37.341Z,24.16
2022-08-26T10:53:59.623Z,24.32
2022-08-26T10:56:41.262Z,24.37
2022-08-26T10:59:16.070Z,24.40
2022-08-26T11:01:47.038Z,24.47
2022-08-26T11:04:48.462Z,24.55
2022-08-26T11:07:37.813Z,24.57
2022-08-26T11:10:14.019Z,24.60
2022-08-26T11:12:53.453Z,24.66
2022-08-26T11:15:53.187Z,24.68
2022-08-26T11:18:48.746Z,24.69
2022-08-26T11:22:05.982Z,24.70
2022-08-26T11:25:03.336Z,24.72
2022-08-26T11:28:08.575Z,24.76
2022-08-26T11:30:57.860Z,24.79
2022-08-26T11:33:51.019Z,24.75
2022-08-26T11:36:38.259Z,24.74
2022-08-26T11:39:18.967Z,24.80
2022-08-26T11:41:52.918Z,24.79
2022-08-26T11:44:24.819Z,24.79
2022-08-26T11:46:59.496Z,24.82
2022-08-26T11:49:29.745Z,24.81
2022-08-26T11:52:20.737Z,24.84
2022-08-26T11:55:04.626Z,24.84
2022-08-26T11:57:36.830Z,24.80
2022-08-26T12:00:12.529Z,24.79
2022-08-26T12:02:46.855Z,24.81
2022-08-26T12:05:20.166Z,24.82
2022-08-26T12:07:52.462Z,24.87
2022-08-26T12:10:30.122Z,24.86
2022-08-26T12:13:01.853Z,24.91
2022-08-26T12:15:33.152Z,24.96
2022-08-26T12:18:29.159Z,24.97
2022-08-26T12:21:02.071Z,24.97
2022-08-26T12:23:43.877Z,24.95
2022-08-26T12:26:17.312Z,25.00
2022-08-26T12:28:48.064Z,25.01
2022-08-26T12:31:25.122Z,25.07
2022-08-26T12:33:59.160Z,25.12
2022-08-26T12:36:32.487Z,25.18
2022-08-26T12:39:10.438Z,25.25
2022-08-26T12:41:50.458Z,25.27
2022-08-26T12:44:39.730Z,25.31
2022-08-26T12:47:12.118Z,25.33
2022-08-26T12:49:46.392Z,25.34
2022-08-26T12:52:30.025Z,25.37
2022-08-26T12:55:02.673Z,25.39
2022-08-26T12:57:35.349Z,25.44
2022-08-26T13:00:40.932Z,25.46
2022-08-26T13:03:32.197Z,25.42
2022-08-26T13:06:16.653Z,25.38
2022-08-26T13:08:47.472Z,25.37
2022-08-26T13:11:20.651Z,25.32
2022-08-26T13:13:51.656Z,25.24
2022-08-26T13:16:21.755Z,25.20
2022-08-26T13:18:52.799Z,25.12
2022-08-26T13:21:26.967Z,25.12
2022-08-26T13:23:57.588Z,25.17
2022-08-26T13:26:27.395Z,25.18
2022-08-26T13:29:01.603Z,25.24
2022-08-26T13:31:32.973Z,25.29
2022-08-26T13:34:03.669Z,25.29
2022-08-26T13:36:36.044Z,25.30
2022-08-26T13:39:08.460Z,25.32
2022-08-26T13:41:38.445Z,25.37
2022-08-26T13:44:08.533Z,25.41
2022-08-26T13:46:39.123Z,25.48
2022-08-26T13:49:09.131Z,25.53
2022-08-26T13:51:41.828Z,25.53
2022-08-26T13:54:11.573Z,25.52
2022-08-26T13:56:41.312Z,25.51
2022-08-26T13:59:11.036Z,25.48
2022-08-26T14:01:40.741Z,25.42
2022-08-26T14:04:10.433Z,25.42
2022-08-26T14:06:42.820Z,25.38
2022-08-26T14:09:12.458Z,25.36
2022-08-26T14:11:54.632Z,25.32
2022-08-26T14:14:25.132Z,25.25
2022-08-26T14:16:59.379Z,25.17
2022-08-26T14:19:30.559Z,25.13
2022-08-26T14:22:03.479Z,25.05
2022-08-26T14:24:33.201Z,25.05
2022-08-26T14:27:02.905Z,25.06
2022-08-26T14:29:32.762Z,25.10
2022-08-26T14:32:06.825Z,25.17
2022-08-26T14:34:36.786Z,25.20
2022-08-26T14:37:11.462Z,25.21
2022-08-26T14:39:43.300Z,25.23
2022-08-26T14:42:15.128Z,25.25
2022-08-26T14:44:48.300Z,25.29
2022-08-26T14:47:18.085Z,25.35
2022-08-26T14:49:47.782Z,25.41
2022-08-26T14:52:20.351Z,25.42
2022-08-26T14:54:47.489Z,25.51
2022-08-26T14:57:24.525Z,25.53
2022-08-26T14:59:54.224Z,25.54
2022-08-26T15:02:32.924Z,25.52
2022-08-26T15:05:04.109Z,25.53
2022-08-26T15:07:36.402Z,25.49
2022-08-26T15:10:07.232Z,25.46
2022-08-26T15:12:36.936Z,25.46
2022-08-26T15:15:07.418Z,25.48
2022-08-26T15:17:37.145Z,25.47
2022-08-26T15:20:08.355Z,25.44
2022-08-26T15:22:42.319Z,25.44
2022-08-26T15:25:13.339Z,25.42
2022-08-26T15:27:43.111Z,25.36
2022-08-26T15:30:16.314Z,25.36
2022-08-26T15:32:46.027Z,25.34
2022-08-26T15:35:15.715Z,25.30
2022-08-26T15:37:48.018Z,25.28
2022-08-26T15:40:18.533Z,25.21
2022-08-26T15:42:57.502Z,25.18
2022-08-26T15:45:31.111Z,25.19
2022-08-26T15:48:02.847Z,25.15
2022-08-26T15:50:32.876Z,25.20
2022-08-26T15:53:05.597Z,25.22
2022-08-26T15:55:35.245Z,25.21
2022-08-26T15:58:05.146Z,25.23
2022-08-26T16:00:34.869Z,25.22
2022-08-26T16:03:06.663Z,25.20
2022-08-26T16:05:39.111Z,25.18
2022-08-26T16:08:11.761Z,25.15
2022-08-26T16:10:47.898Z,25.13
2022-08-26T16:13:21.164Z,25.10
2022-08-26T16:15:52.454Z,25.01
2022-08-26T16:18:23.641Z,25.03
2022-08-26T16:21:12.821Z,25.06
2022-08-26T16:23:46.274Z,25.04
2022-08-26T16:26:17.560Z,24.98
2022-08-26T16:28:47.479Z,24.96
2022-08-26T16:31:17.659Z,24.91
2022-08-26T16:33:47.420Z,24.91
2022-08-26T16:36:17.638Z,24.86
2022-08-26T16:38:55.640Z,24.84
2022-08-26T16:41:25.877Z,24.86
2022-08-26T16:43:56.095Z,24.83
2022-08-26T16:46:27.094Z,24.82
2022-08-26T16:48:57.402Z,24.80
2022-08-26T16:51:29.101Z,24.78
2022-08-26T16:54:02.056Z,24.77
2022-08-26T16:56:34.610Z,24.75
2022-08-26T16:59:05.074Z,24.72
2022-08-26T17:01:34.825Z,24.69
2022-08-26T17:04:04.553Z,24.67
2022-08-26T17:06:34.228Z,24.63
2022-08-26T17:09:06.752Z,24.60
2022-08-26T17:11:36.957Z,24.54
2022-08-26T17:14:07.657Z,24.52
2022-08-26T17:16:37.339Z,24.49
2022-08-26T17:19:08.179Z,24.48
2022-08-26T17:21:39.016Z,24.49
2022-08-26T17:24:11.427Z,24.46
2022-08-26T17:26:44.242Z,24.47
2022-08-26T17:29:18.108Z,24.41
2022-08-26T17:31:47.772Z,24.38
2022-08-26T17:34:17.524Z,24.39
2022-08-26T17:36:47.279Z,24.38
2022-08-26T17:39:19.821Z,24.37
2022-08-26T17:41:49.651Z,24.34
2022-08-26T17:44:19.356Z,24.26
2022-08-26T17:46:49.089Z,24.20
2022-08-26T17:49:18.857Z,24.15
2022-08-26T17:51:48.559Z,24.09
2022-08-26T17:54:21.010Z,24.08
2022-08-26T17:56:50.642Z,24.08
2022-08-26T17:59:20.504Z,24.05
2022-08-26T18:01:51.640Z,24.07
2022-08-26T18:04:21.455Z,24.02
2022-08-26T18:06:51.144Z,23.98
2022-08-26T18:09:23.467Z,23.95
2022-08-26T18:11:53.874Z,23.92
2022-08-26T18:14:23.523Z,23.92
2022-08-26T18:16:53.228Z,23.90
2022-08-26T18:19:23.042Z,23.91
2022-08-26T18:21:53.071Z,23.87
2022-08-26T18:24:25.369Z,23.87
2022-08-26T18:26:54.980Z,23.86
2022-08-26T18:29:25.416Z,23.84
2022-08-26T18:31:55.207Z,23.80
2022-08-26T18:34:25.062Z,23.82
2022-08-26T18:37:01.511Z,23.77
2022-08-26T18:39:34.258Z,23.75
2022-08-26T18:42:04.745Z,23.73
2022-08-26T18:44:34.473Z,23.72
2022-08-26T18:47:04.392Z,23.66
2022-08-26T18:49:34.431Z,23.69
2022-08-26T18:52:04.304Z,23.67
2022-08-26T18:54:36.642Z,23.66
2022-08-26T18:57:06.667Z,23.64
2022-08-26T18:59:36.899Z,23.62
2022-08-26T19:02:06.749Z,23.59
2022-08-26T19:04:38.342Z,23.61
2022-08-26T19:07:08.428Z,23.59
2022-08-26T19:09:40.727Z,23.60
2022-08-26T19:12:11.549Z,23.55
2022-08-26T19:14:41.870Z,23.52
2022-08-26T19:17:12.465Z,23.49
2022-08-26T19:19:42.172Z,23.50
2022-08-26T19:22:11.873Z,23.50
2022-08-26T19:24:44.156Z,23.49
2022-08-26T19:27:15.025Z,23.44
2022-08-26T19:29:44.953Z,23.42
2022-08-26T19:32:14.655Z,23.35
2022-08-26T19:34:44.371Z,23.36
2022-08-26T19:37:14.059Z,23.35
2022-08-26T19:39:46.361Z,23.34
2022-08-26T19:42:16.555Z,23.33
2022-08-26T19:44:58.907Z,23.27
2022-08-26T19:47:28.602Z,23.23
2022-08-26T19:49:59.056Z,23.19
2022-08-26T19:52:29.903Z,23.10
2022-08-26T19:55:03.720Z,23.11
2022-08-26T19:57:33.367Z,23.09
2022-08-26T20:00:03.100Z,23.05
2022-08-26T20:02:34.494Z,23.04
2022-08-26T20:05:05.353Z,22.91
2022-08-26T20:07:35.189Z,22.89
2022-08-26T20:10:09.294Z,22.86
2022-08-26T20:12:38.928Z,22.79
2022-08-26T20:15:09.756Z,22.82
2022-08-26T20:17:40.088Z,22.84
2022-08-26T20:20:32.764Z,22.81
2022-08-26T20:23:05.213Z,22.77
2022-08-26T20:25:37.686Z,22.74
2022-08-26T20:28:11.049Z,22.71
2022-08-26T20:30:40.897Z,22.70
2022-08-26T20:33:10.605Z,22.72
2022-08-26T20:35:40.294Z,22.72
2022-08-26T20:38:10.461Z,22.72
2022-08-26T20:40:43.624Z,22.73
2022-08-26T20:43:13.372Z,22.72
2022-08-26T20:45:43.065Z,22.71
2022-08-26T20:48:12.830Z,22.64
2022-08-26T20:50:42.664Z,22.61
2022-08-26T20:53:12.337Z,22.60
2022-08-26T20:55:45.105Z,22.57
2022-08-26T20:58:14.815Z,22.52
2022-08-26T21:00:44.499Z,22.51
2022-08-26T21:03:14.378Z,22.52
2022-08-26T21:05:44.168Z,22.52
2022-08-26T21:08:13.818Z,22.49
2022-08-26T21:10:46.133Z,22.47
2022-08-26T21:13:16.197Z,22.43
2022-08-26T21:15:45.873Z,22.39
2022-08-26T21:18:15.680Z,22.34
2022-08-26T21:20:45.369Z,22.33
2022-08-26T21:23:15.077Z,22.35
2022-08-26T21:25:47.389Z,22.31
2022-08-26T21:28:17.042Z,22.28
2022-08-26T21:30:46.731Z,22.25
2022-08-26T21:33:16.369Z,22.20
2022-08-26T21:35:54.021Z,22.19
2022-08-26T21:38:23.818Z,22.17
2022-08-26T21:41:03.330Z,22.13
2022-08-26T21:43:35.439Z,22.08
2022-08-26T21:46:11.559Z,22.03
2022-08-26T21:48:42.661Z,22.01
2022-08-26T21:51:13.506Z,21.98
2022-08-26T21:53:43.391Z,21.96
2022-08-26T21:56:18.120Z,21.93
2022-08-26T21:58:47.957Z,21.88
2022-08-26T22:01:21.936Z,21.87
2022-08-26T22:03:52.642Z,21.81
2022-08-26T22:06:25.789Z,21.84
2022-08-26T22:08:56.336Z,21.82
2022-08-26T22:11:29.370Z,21.83
2022-08-26T22:13:59.371Z,21.77
2022-08-26T22:16:29.455Z,21.74
2022-08-26T22:18:59.657Z,21.70
2022-08-26T22:21:30.579Z,21.69
2022-08-26T22:24:00.888Z,21.69
2022-08-26T22:26:35.517Z,21.63
2022-08-26T22:29:06.680Z,21.62
2022-08-26T22:31:38.758Z,21.63
2022-08-26T22:34:10.414Z,21.61
2022-08-26T22:36:43.026Z,21.60
2022-08-26T22:39:14.473Z,21.57
2022-08-26T22:41:48.634Z,21.56
2022-08-26T22:44:19.254Z,21.46
2022-08-26T22:46:49.772Z,21.45
2022-08-26T22:49:19.655Z,21.37
2022-08-26T22:51:49.619Z,21.34
2022-08-26T22:54:19.389Z,21.33
2022-08-26T22:56:51.684Z,21.31
2022-08-26T22:59:21.307Z,21.30
2022-08-26T23:01:51.634Z,21.25
2022-08-26T23:04:21.982Z,21.25
2022-08-26T23:06:51.736Z,21.27
2022-08-26T23:09:21.760Z,21.24
2022-08-26T23:11:54.957Z,21.23
2022-08-26T23:14:24.715Z,21.19
2022-08-26T23:16:54.663Z,21.20
2022-08-26T23:19:25.174Z,21.17
2022-08-26T23:21:54.842Z,21.14
2022-08-26T23:24:24.503Z,21.14
2022-08-26T23:26:56.740Z,21.11
2022-08-26T23:29:26.456Z,21.07
2022-08-26T23:31:57.181Z,21.06
2022-08-26T23:34:39.122Z,21.04
2022-08-26T23:37:09.228Z,21.03
2022-08-26T23:39:39.074Z,21.01
2022-08-26T23:42:12.421Z,20.99
2022-08-26T23:44:42.296Z,20.92
2022-08-26T23:47:11.964Z,20.92
2022-08-26T23:49:41.787Z,20.94
2022-08-26T23:52:24.000Z,20.91
2022-08-26T23:54:53.932Z,20.84
2022-08-26T23:57:27.330Z,20.84
2022-08-26T23:59:57.461Z,20.82
